Time;durP1;ratioP1;P1;durP2;ratioP2;P2;SDS_P1;SDS_P2;PMS_P1;PMS_P2;Temp;Humidity;BMP_temperature;BMP_pressure;BME280_temperature;BME280_humidity;BME280_pressure;Samples;Min_cycle;Max_cycle;Signal;HPM_P1;HPM_P2
2024/01/08 00:00:58;;;;;;;37.90;13.20;;;;;;;-8.65;75.91;99368.27;104916;1270;108882;-69
2024/01/08 00:03:45;;;;;;;32.80;11.40;;;;;;;-8.64;76.03;99372.92;105160;1257;96682;-70
2024/01/08 00:06:13;;;;;;;35.80;11.80;;;;;;;-8.61;76.09;99378.45;105178;1270;107211;-70
2024/01/08 00:08:41;;;;;;;37.90;12.50;;;;;;;-8.61;76.16;99379.31;104943;1259;98049;-70
2024/01/08 00:11:08;;;;;;;44.50;15.50;;;;;;;-8.64;75.70;99381.01;105022;1257;96609;-70
2024/01/08 00:13:36;;;;;;;43.20;14.80;;;;;;;-8.64;76.09;99385.98;105068;1261;109735;-71
2024/01/08 00:16:05;;;;;;;38.50;12.10;;;;;;;-8.57;76.33;99388.13;105380;1257;96642;-70
2024/01/08 00:18:33;;;;;;;32.90;13.20;;;;;;;-8.52;76.23;99396.08;105046;1259;107625;-70
2024/01/08 00:21:02;;;;;;;29.20;10.70;;;;;;;-8.54;76.04;99394.34;105328;1256;97822;-70
2024/01/08 00:23:33;;;;;;;30.30;10.30;;;;;;;-8.57;75.88;99402.40;105351;1259;96594;-71
2024/01/08 00:26:01;;;;;;;31.50;11.70;;;;;;;-8.64;75.91;99402.48;105201;1259;109596;-70
2024/01/08 00:28:29;;;;;;;29.70;10.90;;;;;;;-8.66;75.77;99407.11;105145;1273;96711;-70
2024/01/08 00:30:57;;;;;;;30.10;11.50;;;;;;;-8.70;75.81;99403.13;105186;1259;107647;-70
2024/01/08 00:33:25;;;;;;;29.30;10.10;;;;;;;-8.70;75.92;99404.84;104714;1257;96903;-70
2024/01/08 00:35:53;;;;;;;30.10;11.30;;;;;;;-8.72;75.65;99406.54;105146;1259;96594;-70
2024/01/08 00:38:22;;;;;;;29.30;12.90;;;;;;;-8.80;75.50;99409.04;105213;1259;108410;-71
2024/01/08 00:40:50;;;;;;;31.20;10.70;;;;;;;-8.83;75.75;99409.17;105206;1259;97771;-70
2024/01/08 00:43:18;;;;;;;28.80;12.40;;;;;;;-8.84;75.62;99406.08;105507;1259;107921;-70
2024/01/08 00:45:46;;;;;;;32.10;10.40;;;;;;;-8.90;75.55;99412.52;105269;1259;96619;-71
2024/01/08 00:48:13;;;;;;;32.30;12.80;;;;;;;-8.94;75.45;99413.00;104946;1259;96546;-71
2024/01/08 00:50:41;;;;;;;32.50;11.80;;;;;;;-8.98;75.40;99416.56;104969;1262;109755;-70
2024/01/08 00:53:09;;;;;;;28.20;11.40;;;;;;;-9.02;75.45;99416.52;105263;1259;96546;-70
2024/01/08 00:55:37;;;;;;;28.80;11.00;;;;;;;-9.07;75.45;99420.93;105610;1259;107448;-70
2024/01/08 00:58:05;;;;;;;32.10;11.50;;;;;;;-9.06;75.64;99422.30;105200;1259;97941;-71
2024/01/08 01:00:33;;;;;;;31.00;10.90;;;;;;;-9.04;75.69;99423.53;105140;1259;96609;-71
2024/01/08 01:03:01;;;;;;;28.10;11.60;;;;;;;-9.06;75.55;99424.55;105312;1259;109581;-71
2024/01/08 01:05:29;;;;;;;30.90;12.10;;;;;;;-9.08;75.67;99428.64;104660;1261;96667;-72
2024/01/08 01:07:57;;;;;;;27.40;9.70;;;;;;;-9.10;75.49;99429.13;105189;1260;107671;-70
2024/01/08 01:10:25;;;;;;;32.80;13.90;;;;;;;-9.11;75.72;99431.70;105071;1263;96693;-68
2024/01/08 01:12:52;;;;;;;30.60;11.00;;;;;;;-9.10;75.67;99429.48;105287;1259;96806;-71
2024/01/08 01:15:20;;;;;;;29.30;11.90;;;;;;;-9.12;75.68;99433.23;104754;1259;109399;-71
2024/01/08 01:17:48;;;;;;;29.50;10.70;;;;;;;-9.11;75.65;99433.41;105161;1263;96619;-70
2024/01/08 01:20:16;;;;;;;31.00;10.90;;;;;;;-9.12;75.60;99437.87;105215;1260;107226;-69
2024/01/08 01:22:44;;;;;;;34.00;12.80;;;;;;;-9.14;75.63;99438.34;105575;1259;96634;-70
2024/01/08 01:25:12;;;;;;;25.60;10.10;;;;;;;-9.18;75.60;99439.17;105155;1259;97416;-71
2024/01/08 01:27:40;;;;;;;29.40;11.60;;;;;;;-9.18;75.41;99439.52;105235;1259;110557;-70
2024/01/08 01:30:08;;;;;;;27.00;10.30;;;;;;;-9.20;75.60;99439.50;105607;1259;96634;-70
2024/01/08 01:32:36;;;;;;;28.90;10.00;;;;;;;-9.20;75.36;99440.02;105109;1263;107708;-70
2024/01/08 01:35:06;;;;;;;25.10;9.40;;;;;;;-9.18;75.57;99438.30;105410;1259;97297;-70
2024/01/08 01:37:34;;;;;;;29.30;11.90;;;;;;;-9.13;75.89;99435.62;105304;1259;96715;-70
2024/01/08 01:40:02;;;;;;;28.00;11.00;;;;;;;-9.10;75.76;99439.77;104806;1262;109833;-71
2024/01/08 01:42:30;;;;;;;23.80;9.80;;;;;;;-9.12;75.63;99440.61;105018;1257;96612;-72
2024/01/08 01:44:58;;;;;;;30.10;10.50;;;;;;;-9.10;75.57;99440.98;104942;1260;106852;-70
2024/01/08 01:47:27;;;;;;;28.40;9.80;;;;;;;-9.07;75.84;99444.97;104943;1262;96626;-70
2024/01/08 01:49:55;;;;;;;30.40;11.10;;;;;;;-9.03;75.64;99446.05;105069;1262;96661;-69
2024/01/08 01:52:25;;;;;;;26.90;10.30;;;;;;;-9.02;75.48;99448.83;104738;1260;109902;-69
2024/01/08 01:54:53;;;;;;;28.50;9.70;;;;;;;-9.03;75.40;99448.64;104944;1269;96680;-70
2024/01/08 01:57:21;;;;;;;28.90;10.70;;;;;;;-9.04;75.46;99450.68;105131;1272;107126;-71
2024/01/08 01:59:49;;;;;;;29.00;10.00;;;;;;;-9.05;75.40;99450.84;104990;1262;97934;-69
2024/01/08 02:02:18;;;;;;;27.60;10.70;;;;;;;-9.05;75.55;99450.68;105333;1262;96645;-69
2024/01/08 02:04:46;;;;;;;26.10;10.50;;;;;;;-9.04;75.40;99452.40;105328;1260;109823;-69
2024/01/08 02:07:14;;;;;;;28.40;10.50;;;;;;;-9.04;75.60;99449.66;105420;1257;96588;-70
2024/01/08 02:09:43;;;;;;;28.40;12.20;;;;;;;-9.01;75.59;99449.70;105322;1257;107283;-69
2024/01/08 02:12:11;;;;;;;26.20;8.90;;;;;;;-8.99;75.64;99451.79;105148;1263;97237;-70
2024/01/08 02:14:40;;;;;;;26.60;11.30;;;;;;;-9.00;75.49;99456.58;104828;1262;96524;-71
2024/01/08 02:17:08;;;;;;;24.40;9.10;;;;;;;-9.00;75.65;99456.75;104837;1257;109962;-71
2024/01/08 02:19:36;;;;;;;31.80;12.60;;;;;;;-8.99;75.68;99456.60;105397;1270;96699;-70
2024/01/08 02:22:04;;;;;;;28.00;10.70;;;;;;;-8.95;75.66;99460.94;105759;1272;108036;-71
2024/01/08 02:24:32;;;;;;;27.70;10.50;;;;;;;-8.94;75.55;99460.94;105312;1260;97407;-71
2024/01/08 02:27:00;;;;;;;27.30;11.10;;;;;;;-8.93;75.81;99459.74;105304;1259;97846;-69
2024/01/08 02:29:30;;;;;;;25.50;9.30;;;;;;;-8.93;75.31;99458.54;104678;1259;109932;-70
2024/01/08 02:31:58;;;;;;;28.80;10.70;;;;;;;-8.96;75.40;99462.98;105380;1259;96613;-70
2024/01/08 02:34:26;;;;;;;32.10;11.90;;;;;;;-8.98;75.27;99465.89;105393;1261;107086;-71
2024/01/08 02:36:54;;;;;;;28.30;9.70;;;;;;;-9.02;74.93;99466.86;105415;1259;97613;-69
2024/01/08 02:39:22;;;;;;;27.90;9.20;;;;;;;-9.06;75.02;99467.84;106513;1259;96580;-70
2024/01/08 02:41:50;;;;;;;26.90;9.20;;;;;;;-9.07;75.31;99461.64;105280;1257;110332;-69
2024/01/08 02:44:17;;;;;;;27.40;11.40;;;;;;;-9.01;75.61;99469.63;105132;1276;96525;-69
2024/01/08 02:46:45;;;;;;;27.90;9.70;;;;;;;-9.00;75.32;99470.17;105101;1263;107658;-69
2024/01/08 02:49:13;;;;;;;29.70;10.30;;;;;;;-9.01;75.34;99470.66;105389;1262;96741;-71
2024/01/08 02:51:41;;;;;;;25.90;9.50;;;;;;;-9.01;75.45;99471.35;105262;1259;96922;-71
2024/01/08 02:54:09;;;;;;;29.10;10.20;;;;;;;-8.97;75.63;99471.21;105057;1272;109946;-70
2024/01/08 02:56:37;;;;;;;25.70;9.90;;;;;;;-8.96;75.29;99470.70;105149;1256;96502;-70
2024/01/08 02:59:06;;;;;;;24.70;9.50;;;;;;;-8.93;75.63;99474.52;105161;1257;105805;-70
2024/01/08 03:01:36;;;;;;;28.50;10.90;;;;;;;-8.91;75.37;99475.24;105240;1262;97801;-70
2024/01/08 03:04:04;;;;;;;27.80;10.90;;;;;;;-8.94;74.97;99478.82;104790;1260;97838;-70
2024/01/08 03:06:32;;;;;;;24.30;9.40;;;;;;;-8.98;75.23;99482.56;105221;1259;109716;-69
2024/01/08 03:09:00;;;;;;;28.70;10.30;;;;;;;-8.97;75.21;99488.75;104813;1271;96621;-70
2024/01/08 03:11:28;;;;;;;25.70;9.10;;;;;;;-8.99;75.01;99487.02;105058;1271;107874;-70
2024/01/08 03:13:57;;;;;;;27.50;10.80;;;;;;;-8.97;75.47;99487.05;105369;1261;97843;-69
2024/01/08 03:16:25;;;;;;;25.90;10.20;;;;;;;-8.98;75.02;99493.40;104761;1260;98120;-70
2024/01/08 03:18:53;;;;;;;26.20;9.50;;;;;;;-9.03;74.23;99493.14;105119;1259;109544;-70
2024/01/08 03:21:21;;;;;;;26.10;9.90;;;;;;;-9.11;74.36;99499.90;105126;1270;96553;-70
2024/01/08 03:23:49;;;;;;;26.80;9.90;;;;;;;-9.13;75.09;99506.77;104681;1270;107895;-70
2024/01/08 03:26:17;;;;;;;25.50;9.70;;;;;;;-9.10;74.73;99504.73;104910;1267;97188;-69
2024/01/08 03:28:45;;;;;;;29.10;9.90;;;;;;;-9.11;74.51;99507.30;104373;1262;96802;-69
2024/01/08 03:31:13;;;;;;;23.30;9.10;;;;;;;-9.14;74.15;99510.52;104992;1263;109775;-70
2024/01/08 03:33:40;;;;;;;24.70;8.90;;;;;;;-9.13;75.16;99503.31;105015;1262;96584;-72
2024/01/08 03:36:10;;;;;;;25.70;10.20;;;;;;;-9.06;75.38;99503.41;104985;1262;107618;-71
2024/01/08 03:38:38;;;;;;;26.10;10.60;;;;;;;-9.01;74.90;99506.92;105039;1262;97531;-70
2024/01/08 03:41:06;;;;;;;26.80;10.40;;;;;;;-9.01;74.76;99511.05;104995;1268;96532;-69
2024/01/08 03:43:34;;;;;;;24.60;9.60;;;;;;;-8.99;75.24;99511.61;104735;1260;110002;-70
2024/01/08 03:46:02;;;;;;;28.50;10.00;;;;;;;-8.96;75.47;99507.67;105070;1260;97628;-71
2024/01/08 03:48:29;;;;;;;26.20;10.20;;;;;;;-8.95;75.11;99505.97;104528;1271;105550;-70
2024/01/08 03:50:57;;;;;;;27.80;9.20;;;;;;;-8.94;74.58;99507.17;105329;1269;97961;-70
2024/01/08 03:53:25;;;;;;;29.20;10.40;;;;;;;-8.94;74.95;99508.88;105077;1258;96712;-70
2024/01/08 03:55:53;;;;;;;30.80;10.40;;;;;;;-8.93;75.06;99507.88;105187;1264;109407;-70
2024/01/08 03:58:21;;;;;;;32.00;13.20;;;;;;;-8.90;75.27;99507.92;104985;1270;96549;-71
2024/01/08 04:00:50;;;;;;;28.20;9.60;;;;;;;-8.88;74.68;99510.35;105246;1258;107134;-70
2024/01/08 04:03:17;;;;;;;24.90;9.30;;;;;;;-8.90;74.77;99514.61;104903;1260;96632;-70
2024/01/08 04:05:45;;;;;;;25.60;10.30;;;;;;;-8.87;75.26;99516.04;105266;1259;97342;-71
2024/01/08 04:08:13;;;;;;;29.70;8.90;;;;;;;-8.82;75.29;99516.98;104949;1262;109923;-70
2024/01/08 04:10:41;;;;;;;26.60;10.30;;;;;;;-8.79;75.32;99522.86;105302;1260;96591;-71
2024/01/08 04:13:09;;;;;;;20.90;7.70;;;;;;;-8.74;75.36;99524.29;104947;1264;107712;-70
2024/01/08 04:15:37;;;;;;;26.40;10.00;;;;;;;-8.70;75.28;99522.27;104748;1264;96611;-70
2024/01/08 04:18:05;;;;;;;25.10;9.90;;;;;;;-8.71;75.10;99524.84;105201;1260;96808;-70
2024/01/08 04:20:33;;;;;;;24.20;9.00;;;;;;;-8.72;74.79;99529.47;104969;1265;110591;-70
2024/01/08 04:23:01;;;;;;;26.40;9.50;;;;;;;-8.74;74.94;99532.88;105200;1263;97961;-70
2024/01/08 04:25:28;;;;;;;27.10;10.20;;;;;;;-8.68;75.30;99540.19;104937;1256;110436;-71
2024/01/08 04:27:56;;;;;;;31.50;12.60;;;;;;;-8.68;75.16;99540.20;104959;1269;96609;-71
2024/01/08 04:30:24;;;;;;;32.00;11.40;;;;;;;-8.66;74.76;99546.05;105139;1263;96673;-70
2024/01/08 04:32:53;;;;;;;27.10;9.20;;;;;;;-8.73;74.48;99549.91;105107;1257;110500;-71
2024/01/08 04:35:21;;;;;;;27.00;10.90;;;;;;;-8.75;75.04;99550.40;105122;1270;96686;-71
2024/01/08 04:37:49;;;;;;;30.30;11.40;;;;;;;-8.77;74.89;99553.83;105231;1259;107680;-70
2024/01/08 04:40:18;;;;;;;27.40;10.20;;;;;;;-8.77;74.71;99560.34;105060;1258;96651;-71
2024/01/08 04:42:45;;;;;;;24.50;10.20;;;;;;;-8.80;74.98;99563.40;104988;1264;96601;-70
2024/01/08 04:45:17;;;;;;;32.40;10.50;;;;;;;-8.84;74.97;99563.70;105252;1259;108419;-70
2024/01/08 04:47:45;;;;;;;28.10;11.50;;;;;;;-8.86;74.52;99569.67;105116;1257;96539;-70
2024/01/08 04:50:13;;;;;;;27.40;11.10;;;;;;;-8.89;74.91;99571.52;105249;1260;107012;-70
2024/01/08 04:52:41;;;;;;;29.00;10.20;;;;;;;-8.93;74.91;99576.28;105135;1258;96722;-70
2024/01/08 04:55:08;;;;;;;31.40;12.00;;;;;;;-8.98;74.82;99582.23;105394;1262;97206;-70
2024/01/08 04:57:36;;;;;;;32.20;12.10;;;;;;;-9.01;74.77;99583.23;105398;1260;108612;-71
2024/01/08 05:00:06;;;;;;;26.70;10.60;;;;;;;-9.03;74.91;99587.67;105266;1265;96598;-70
2024/01/08 05:02:34;;;;;;;27.40;12.90;;;;;;;-9.08;74.61;99593.60;105641;1258;106476;-70
2024/01/08 05:05:04;;;;;;;29.70;11.60;;;;;;;-9.13;74.62;99595.76;105160;1270;96658;-70
2024/01/08 05:07:32;;;;;;;30.10;12.30;;;;;;;-9.14;74.60;99600.38;105256;1260;96621;-75
2024/01/08 05:10:00;;;;;;;32.80;12.60;;;;;;;-9.14;74.91;99605.52;105256;1259;109415;-73
2024/01/08 05:12:28;;;;;;;31.10;13.10;;;;;;;-9.13;74.98;99606.77;105420;1257;97647;-74
2024/01/08 05:14:56;;;;;;;31.30;14.60;;;;;;;-9.14;74.64;99610.52;105423;1267;107662;-74
2024/01/08 05:17:24;;;;;;;31.20;13.10;;;;;;;-9.16;74.82;99609.46;104985;1273;96606;-72
2024/01/08 05:19:53;;;;;;;29.90;11.50;;;;;;;-9.15;74.89;99613.59;105047;1258;96606;-71
2024/01/08 05:22:21;;;;;;;31.00;12.40;;;;;;;-9.13;74.90;99615.34;105291;1263;109816;-73
2024/01/08 05:24:49;;;;;;;32.90;13.30;;;;;;;-9.14;74.66;99617.57;104971;1263;97527;-71
2024/01/08 05:27:17;;;;;;;32.30;13.80;;;;;;;-9.18;74.54;99617.33;105100;1257;106092;-72
2024/01/08 05:29:45;;;;;;;30.30;12.00;;;;;;;-9.19;74.36;99622.13;105228;1263;96634;-69
2024/01/08 05:32:13;;;;;;;31.50;11.30;;;;;;;-9.22;74.58;99622.27;104757;1270;96603;-70
2024/01/08 05:34:41;;;;;;;25.40;9.40;;;;;;;-9.22;74.57;99625.17;105066;1264;110081;-70
2024/01/08 05:37:09;;;;;;;29.90;11.60;;;;;;;-9.20;74.64;99632.77;105353;1257;97439;-70
2024/01/08 05:39:37;;;;;;;31.90;11.30;;;;;;;-9.21;74.79;99633.27;105222;1258;107458;-70
2024/01/08 05:42:05;;;;;;;28.40;11.20;;;;;;;-9.22;74.77;99635.98;105453;1261;97916;-71
2024/01/08 05:44:35;;;;;;;26.30;10.20;;;;;;;-9.29;74.19;99646.88;105236;1260;96593;-70
2024/01/08 05:47:04;;;;;;;28.50;11.10;;;;;;;-9.35;74.19;99648.14;105257;1258;109954;-70
2024/01/08 05:49:32;;;;;;;29.20;10.90;;;;;;;-9.37;74.51;99651.20;105269;1257;96607;-70
2024/01/08 05:52:00;;;;;;;30.60;11.30;;;;;;;-9.39;74.20;99652.89;105261;1260;107762;-71
2024/01/08 05:54:28;;;;;;;26.00;9.60;;;;;;;-9.44;74.27;99650.58;105188;1260;96606;-71
2024/01/08 05:56:56;;;;;;;25.80;10.40;;;;;;;-9.44;74.64;99653.83;105270;1271;96539;-71
2024/01/08 05:59:24;;;;;;;28.20;10.50;;;;;;;-9.42;74.77;99657.30;105136;1260;109527;-71
2024/01/08 06:01:52;;;;;;;27.00;9.80;;;;;;;-9.43;74.37;99658.31;105151;1258;96612;-70
2024/01/08 06:04:19;;;;;;;27.10;10.60;;;;;;;-9.46;74.25;99664.45;105324;1260;107623;-71
2024/01/08 06:06:49;;;;;;;27.70;9.70;;;;;;;-9.47;74.52;99668.03;105306;1261;96623;-71
2024/01/08 06:09:17;;;;;;;28.30;10.80;;;;;;;-9.49;74.37;99672.29;105462;1260;96530;-70
2024/01/08 06:11:45;;;;;;;27.00;10.80;;;;;;;-9.50;74.28;99676.91;105249;1262;109997;-70
2024/01/08 06:14:13;;;;;;;28.70;10.00;;;;;;;-9.52;74.35;99682.02;105371;1257;96545;-70
2024/01/08 06:16:41;;;;;;;24.90;9.40;;;;;;;-9.53;74.54;99685.44;105424;1257;107519;-69
2024/01/08 06:19:09;;;;;;;28.50;10.60;;;;;;;-9.53;74.54;99689.54;105161;1263;96688;-71
2024/01/08 06:21:38;;;;;;;29.60;12.70;;;;;;;-9.57;74.39;99692.76;105193;1255;96608;-69
2024/01/08 06:24:06;;;;;;;30.70;10.40;;;;;;;-9.58;74.23;99695.47;108377;1257;110401;-69
2024/01/08 06:26:34;;;;;;;26.20;10.70;;;;;;;-9.58;74.55;99700.63;108467;1257;96206;-69
2024/01/08 06:29:02;;;;;;;31.40;12.60;;;;;;;-9.55;74.45;99705.32;105883;1260;107086;-69
2024/01/08 06:31:30;;;;;;;27.50;11.00;;;;;;;-9.56;73.97;99707.87;105745;1256;96609;-70
2024/01/08 06:34:00;;;;;;;31.10;12.80;;;;;;;-9.58;74.33;99711.45;104459;1262;96668;-69
2024/01/08 06:36:28;;;;;;;30.80;11.20;;;;;;;-9.58;74.28;99716.59;104578;1264;111600;-71
2024/01/08 06:38:56;;;;;;;29.80;10.90;;;;;;;-9.61;73.74;99719.30;104467;1260;96617;-70
2024/01/08 06:41:24;;;;;;;26.70;10.40;;;;;;;-9.65;73.78;99722.48;104794;1271;108145;-70
2024/01/08 06:43:52;;;;;;;31.20;10.90;;;;;;;-9.68;74.02;99726.02;104742;1267;96626;-70
2024/01/08 06:46:20;;;;;;;31.50;10.90;;;;;;;-9.67;74.29;99722.77;104804;1260;96594;-69
2024/01/08 06:48:48;;;;;;;31.50;12.10;;;;;;;-9.67;74.15;99730.31;104439;1273;110097;-69
2024/01/08 06:51:16;;;;;;;27.70;11.10;;;;;;;-9.68;74.47;99730.30;104944;1257;97545;-68
2024/01/08 06:53:45;;;;;;;27.30;12.50;;;;;;;-9.72;74.34;99737.61;104368;1264;109064;-70
2024/01/08 06:56:13;;;;;;;28.90;13.20;;;;;;;-9.76;74.14;99738.73;104683;1257;96601;-70
2024/01/08 06:58:42;;;;;;;30.50;10.90;;;;;;;-9.75;74.45;99742.36;104831;1257;96806;-70
2024/01/08 07:01:09;;;;;;;29.60;12.00;;;;;;;-9.71;74.43;99748.61;105290;1257;110263;-70
2024/01/08 07:03:37;;;;;;;25.00;9.80;;;;;;;-9.68;74.32;99750.93;105060;1270;96683;-69
2024/01/08 07:06:06;;;;;;;31.00;12.40;;;;;;;-9.67;74.15;99751.60;104692;1270;107641;-70
2024/01/08 07:08:34;;;;;;;29.20;10.40;;;;;;;-9.67;74.05;99757.98;104749;1260;98018;-68
2024/01/08 07:11:02;;;;;;;28.00;11.10;;;;;;;-9.68;74.08;99760.34;104684;1258;96519;-70
2024/01/08 07:13:30;;;;;;;32.30;12.20;;;;;;;-9.67;74.49;99765.17;104498;1257;110082;-70
2024/01/08 07:15:58;;;;;;;27.40;10.90;;;;;;;-9.66;74.34;99768.30;104627;1263;97941;-70
2024/01/08 07:18:26;;;;;;;32.90;11.30;;;;;;;-9.68;73.84;99769.77;104575;1260;107080;-67
2024/01/08 07:20:55;;;;;;;30.30;11.20;;;;;;;-9.69;74.35;99778.19;104735;1261;96652;-70
2024/01/08 07:23:25;;;;;;;35.80;11.80;;;;;;;-9.68;74.19;99778.89;104577;1270;97527;-70
2024/01/08 07:25:53;;;;;;;27.40;11.50;;;;;;;-9.72;74.18;99783.27;104548;1258;108883;-70
2024/01/08 07:28:22;;;;;;;29.30;11.50;;;;;;;-9.70;74.26;99784.52;104700;1258;96514;-70
2024/01/08 07:30:49;;;;;;;29.00;11.20;;;;;;;-9.63;74.57;99785.70;104504;1270;108209;-70
2024/01/08 07:33:18;;;;;;;29.70;10.80;;;;;;;-9.60;73.97;99787.48;104778;1257;97904;-70
2024/01/08 07:35:46;;;;;;;28.10;11.40;;;;;;;-9.64;73.80;99790.66;104835;1260;96638;-71
2024/01/08 07:38:14;;;;;;;33.20;11.20;;;;;;;-9.62;74.28;99794.84;104696;1270;110281;-69
2024/01/08 07:40:42;;;;;;;31.80;13.60;;;;;;;-9.59;74.03;99792.48;104974;1273;96533;-71
2024/01/08 07:43:09;;;;;;;29.70;11.20;;;;;;;-9.59;73.73;99796.93;104983;1261;107587;-69
2024/01/08 07:45:37;;;;;;;32.80;12.30;;;;;;;-9.61;73.85;99801.20;104964;1260;96600;-68
2024/01/08 07:48:05;;;;;;;30.00;12.20;;;;;;;-9.56;74.22;99809.19;104730;1261;96613;-70
2024/01/08 07:50:33;;;;;;;30.50;11.50;;;;;;;-9.53;73.85;99812.68;104726;1260;108859;-71
2024/01/08 07:53:02;;;;;;;31.50;12.00;;;;;;;-9.52;73.79;99814.59;104696;1270;97945;-71
2024/01/08 07:55:30;;;;;;;32.60;12.50;;;;;;;-9.57;73.19;99816.73;104355;1262;108087;-70
2024/01/08 07:57:58;;;;;;;30.20;12.00;;;;;;;-9.58;73.19;99817.05;105223;1262;97903;-70
2024/01/08 08:00:27;;;;;;;29.30;10.20;;;;;;;-9.62;73.00;99817.81;105202;1260;96549;-71
2024/01/08 08:02:55;;;;;;;32.40;12.40;;;;;;;-9.65;73.04;99817.08;105228;1258;110610;-70
2024/01/08 08:05:23;;;;;;;28.20;11.50;;;;;;;-9.66;72.93;99820.81;104752;1262;96613;-70
2024/01/08 08:07:55;;;;;;;32.80;12.00;;;;;;;-9.72;72.77;99827.23;104820;1263;106496;-68
2024/01/08 08:10:23;;;;;;;31.90;12.90;;;;;;;-9.72;73.37;99833.05;104635;1270;96702;-69
2024/01/08 08:12:52;;;;;;;26.30;10.20;;;;;;;-9.67;73.54;99839.01;104649;1273;96782;-70
2024/01/08 08:15:20;;;;;;;32.60;12.60;;;;;;;-9.67;73.63;99839.00;104348;1264;110921;-70
2024/01/08 08:17:50;;;;;;;28.80;10.70;;;;;;;-9.64;73.79;99838.56;104754;1270;96603;-69
2024/01/08 08:20:20;;;;;;;30.50;11.50;;;;;;;-9.61;73.37;99842.90;104738;1273;108686;-69
2024/01/08 08:22:48;;;;;;;30.80;11.40;;;;;;;-9.67;73.07;99847.56;104806;1259;96677;-72
2024/01/08 08:25:19;;;;;;;32.10;12.50;;;;;;;-9.69;73.38;99853.89;104693;1259;96908;-69
2024/01/08 08:27:48;;;;;;;28.10;10.90;;;;;;;-9.68;73.70;99856.67;104772;1256;109653;-71
2024/01/08 08:30:19;;;;;;;26.70;10.40;;;;;;;-9.71;73.04;99859.35;104771;1259;97423;-70
2024/01/08 08:32:47;;;;;;;30.60;12.00;;;;;;;-9.80;72.57;99866.20;105056;1270;110032;-69
2024/01/08 08:35:16;;;;;;;30.40;11.50;;;;;;;-9.84;73.01;99867.65;104681;1270;96615;-71
2024/01/08 08:37:45;;;;;;;28.80;12.00;;;;;;;-9.82;73.03;99875.05;104778;1259;98069;-69
2024/01/08 08:40:21;;;;;;;33.40;13.80;;;;;;;-9.87;72.81;99874.42;104516;1259;109748;-69
2024/01/08 08:42:50;;;;;;;31.00;10.80;;;;;;;-9.86;73.39;99875.83;104586;1260;96817;-70
2024/01/08 08:45:18;;;;;;;34.80;12.00;;;;;;;-9.81;73.55;99875.42;104577;1262;108007;-70
2024/01/08 08:47:46;;;;;;;34.90;12.60;;;;;;;-9.79;73.59;99880.64;104651;1263;98059;-70
2024/01/08 08:50:15;;;;;;;29.50;11.50;;;;;;;-9.79;73.31;99884.75;104985;1259;98063;-68
2024/01/08 08:52:46;;;;;;;29.10;11.80;;;;;;;-9.81;72.93;99893.28;104423;1263;110217;-69
2024/01/08 08:55:14;;;;;;;31.10;11.80;;;;;;;-9.87;72.88;99893.67;104700;1272;96625;-70
2024/01/08 08:57:43;;;;;;;31.80;10.20;;;;;;;-9.92;72.59;99893.89;104582;1255;108374;-70
2024/01/08 09:00:11;;;;;;;29.50;11.20;;;;;;;-9.95;72.22;99900.70;104710;1260;97375;-69
2024/01/08 09:02:45;;;;;;;43.20;16.00;;;;;;;-9.98;72.33;99903.69;104594;1260;96719;-70
2024/01/08 09:05:13;;;;;;;32.60;13.20;;;;;;;-10.00;72.62;99906.59;104571;1262;110107;-68
2024/01/08 09:07:54;;;;;;;48.20;13.10;;;;;;;-9.96;73.01;99913.86;105132;1261;96613;-68
2024/01/08 09:10:22;;;;;;;30.30;11.90;;;;;;;-9.97;72.02;99916.94;104658;1272;105873;-69
2024/01/08 09:12:50;;;;;;;29.60;10.60;;;;;;;-10.01;72.10;99916.86;104666;1257;96612;-69
2024/01/08 09:15:19;;;;;;;30.60;11.60;;;;;;;-10.01;72.21;99918.23;104764;1259;96810;-68
2024/01/08 09:17:47;;;;;;;36.10;12.20;;;;;;;-10.03;71.88;99920.77;104646;1262;110169;-70
2024/01/08 09:20:15;;;;;;;34.40;13.60;;;;;;;-10.01;71.99;99922.52;104563;1260;96673;-70
2024/01/08 09:22:43;;;;;;;36.80;13.40;;;;;;;-9.97;72.44;99917.45;104670;1261;108417;-70
2024/01/08 09:25:12;;;;;;;30.60;12.50;;;;;;;-9.92;72.41;99919.29;104731;1260;96744;-70
2024/01/08 09:27:42;;;;;;;51.70;18.50;;;;;;;-9.91;72.08;99916.73;104781;1258;96798;-70
2024/01/08 09:30:10;;;;;;;32.80;10.70;;;;;;;-9.91;72.43;99920.70;104859;1259;109966;-69
2024/01/08 09:32:38;;;;;;;28.30;10.60;;;;;;;-9.83;72.13;99926.38;104784;1261;96685;-69
2024/01/08 09:35:06;;;;;;;31.50;11.70;;;;;;;-9.77;72.66;99918.95;104833;1259;108080;-69
2024/01/08 09:37:34;;;;;;;39.90;17.10;;;;;;;-9.67;72.94;99922.45;104817;1256;96605;-68
2024/01/08 09:40:04;;;;;;;27.80;11.40;;;;;;;-9.62;72.18;99922.05;104853;1256;97964;-70
2024/01/08 09:42:33;;;;;;;30.10;12.90;;;;;;;-9.58;72.94;99924.88;104787;1256;110030;-70
2024/01/08 09:45:03;;;;;;;25.90;9.20;;;;;;;-9.46;73.36;99922.56;105240;1262;96756;-70
2024/01/08 09:47:31;;;;;;;28.80;11.40;;;;;;;-9.37;73.32;99921.56;105248;1259;107744;-70
2024/01/08 09:50:01;;;;;;;28.60;11.60;;;;;;;-9.32;71.89;99926.29;105093;1260;96670;-70
2024/01/08 09:52:40;;;;;;;31.40;13.20;;;;;;;-9.33;72.06;99923.88;105090;1259;96578;-70
2024/01/08 09:55:58;;;;;;;29.10;11.70;;;;;;;-9.30;71.57;99923.26;105055;1260;108139;-69
2024/01/08 09:58:27;;;;;;;30.40;11.60;;;;;;;-9.27;72.03;99922.11;104828;1257;96643;-69
2024/01/08 10:00:55;;;;;;;27.60;11.00;;;;;;;-9.19;72.24;99921.42;104757;1276;107918;-70
2024/01/08 10:03:23;;;;;;;30.20;11.70;;;;;;;-9.17;71.12;99920.10;105293;1271;96624;-70
2024/01/08 10:05:51;;;;;;;31.80;12.90;;;;;;;-9.15;71.90;99921.67;104773;1263;97008;-72
2024/01/08 10:08:19;;;;;;;29.10;11.30;;;;;;;-9.09;72.28;99918.36;104803;1256;109124;-69
2024/01/08 10:10:47;;;;;;;34.90;14.00;;;;;;;-9.04;72.47;99919.68;104728;1262;96703;-70
2024/01/08 10:13:16;;;;;;;30.40;11.40;;;;;;;-9.00;72.56;99923.70;105051;1259;107746;-70
2024/01/08 10:15:48;;;;;;;27.70;11.00;;;;;;;-8.98;72.12;99917.91;104349;1273;96669;-69
2024/01/08 10:18:19;;;;;;;39.20;14.90;;;;;;;-8.95;72.52;99920.70;105311;1256;96557;-70
2024/01/08 10:20:47;;;;;;;33.30;13.20;;;;;;;-8.91;72.28;99928.00;105153;1260;109696;-72
2024/01/08 10:23:16;;;;;;;30.10;11.60;;;;;;;-8.88;72.06;99924.29;104986;1259;96523;-71
2024/01/08 10:25:50;;;;;;;108.60;41.30;;;;;;;-8.87;72.10;99923.96;105264;1259;107581;-71
2024/01/08 10:28:19;;;;;;;40.90;16.20;;;;;;;-8.81;72.89;99924.77;105195;1259;97423;-69
2024/01/08 10:30:48;;;;;;;33.40;11.90;;;;;;;-8.73;72.59;99930.23;104927;1257;96523;-70
2024/01/08 10:33:18;;;;;;;36.90;14.90;;;;;;;-8.69;72.60;99926.02;105248;1259;110136;-69
2024/01/08 10:35:46;;;;;;;31.20;11.10;;;;;;;-8.64;72.33;99926.11;105255;1259;96557;-71
2024/01/08 10:38:15;;;;;;;31.00;12.60;;;;;;;-8.64;72.09;99928.88;105514;1261;107094;-69
2024/01/08 10:40:43;;;;;;;28.20;11.50;;;;;;;-8.67;71.61;99931.05;105260;1259;97287;-69
2024/01/08 10:43:11;;;;;;;32.30;11.80;;;;;;;-8.69;72.07;99926.20;105220;1259;96598;-70
2024/01/08 10:45:39;;;;;;;30.60;11.80;;;;;;;-8.72;71.79;99927.52;105273;1256;109995;-71
2024/01/08 10:48:21;;;;;;;29.40;11.30;;;;;;;-8.71;72.17;99928.40;105562;1256;96546;-70
2024/01/08 10:50:53;;;;;;;29.40;10.30;;;;;;;-8.68;71.16;99931.54;107694;1259;107384;-72
2024/01/08 10:53:34;;;;;;;27.30;10.80;;;;;;;-8.70;71.19;99932.04;105831;1259;96667;-70
2024/01/08 10:56:07;;;;;;;29.40;10.50;;;;;;;-8.68;71.04;99934.98;105590;1259;96600;-70
2024/01/08 10:58:36;;;;;;;31.20;12.70;;;;;;;-8.70;71.21;99934.09;105128;1257;109930;-70
2024/01/08 11:03:35;;;;;;;28.00;9.70;;;;;;;-8.55;71.83;99943.30;102203;1297;636272;-69
2024/01/08 11:06:04;;;;;;;26.60;10.60;;;;;;;-8.53;72.26;99942.15;104233;1267;94348;-70
2024/01/08 11:08:33;;;;;;;28.20;11.80;;;;;;;-8.51;71.76;99939.25;104194;1269;94329;-72
2024/01/08 11:11:06;;;;;;;26.90;9.70;;;;;;;-8.48;72.38;99937.23;104246;1270;107236;-71
2024/01/08 11:13:36;;;;;;;30.20;12.20;;;;;;;-8.43;72.36;99943.16;104553;1267;94400;-70
2024/01/08 11:16:06;;;;;;;29.40;12.10;;;;;;;-8.39;72.23;99945.30;104738;1270;162624;-71